Time;durP1;ratioP1;P1;durP2;ratioP2;P2;SDS_P1;SDS_P2;PMS_P1;PMS_P2;Temp;Humidity;BMP_temperature;BMP_pressure;BME280_temperature;BME280_humidity;BME280_pressure;Samples;Min_cycle;Max_cycle;Signal;HPM_P1;HPM_P2
2022/01/26 18:50:12;;;;;;;3.78;3.47;;;;;;;;;;6158419;23;20009;-68
2022/01/26 18:52:40;;;;;;;4.15;3.63;;;;;;;;;;6157997;23;20441;-67
2022/01/26 18:55:11;;;;;;;4.80;3.60;;;;;;;;;;6157860;23;20001;-68
2022/01/26 18:57:36;;;;;;;5.75;3.92;;;;;;;;;;6156364;23;20002;-68
2022/01/26 19:00:02;;;;;;;8.88;4.82;;;;;;;;;;6148217;23;19998;-68
2022/01/26 19:02:28;;;;;;;6.78;4.43;;;;;;;;;;6153848;23;20012;-66
2022/01/26 19:04:53;;;;;;;4.05;3.65;;;;;;;;;;6154047;23;20009;-65
2022/01/26 19:07:19;;;;;;;6.85;5.80;;;;;;;;;;6153539;23;20025;-66
2022/01/26 19:09:45;;;;;;;6.13;4.28;;;;;;;;;;6154020;23;20031;-69
2022/01/26 19:12:13;;;;;;;6.18;4.28;;;;;;;;;;6153866;23;20009;-68
2022/01/26 19:14:43;;;;;;;6.15;4.32;;;;;;;;;;6154240;23;20037;-69
2022/01/26 19:19:44;;;;;;;11.10;6.53;;;;;;;;;;6154451;23;20079;-69
2022/01/26 19:22:53;;;;;;;11.30;6.93;;;;;;;;;;6153900;23;20497;-69
2022/01/26 19:28:27;;;;;;;6.22;4.97;;;;;;;;;;6153258;23;20013;-68
2022/01/26 19:54:42;;;;;;;;;;;;;;;;;;6062692;23;20062;-68
2022/01/26 19:57:08;;;;;;;6.00;5.10;;;;;;;;;;6133108;23;20281;-68
2022/01/26 19:59:34;;;;;;;5.63;4.13;;;;;;;;;;6152765;23;20497;-68
2022/01/26 20:02:00;;;;;;;5.90;4.93;;;;;;;;;;6153085;23;20002;-68
2022/01/26 20:04:31;;;;;;;7.60;5.03;;;;;;;;;;6152798;23;20163;-68
2022/01/26 20:07:01;;;;;;;;;;;;;;;;;;6153357;23;20017;-68
2022/01/26 20:09:32;;;;;;;6.00;4.63;;;;;;;;;;6153082;23;20506;-68
2022/01/26 20:12:03;;;;;;;7.30;4.90;;;;;;;;;;6152772;23;20006;-68
2022/01/26 20:14:32;;;;;;;6.82;5.05;;;;;;;;;;6152249;23;20002;-68
2022/01/26 20:16:59;;;;;;;8.60;5.93;;;;;;;;;;6125704;23;20426;-68
2022/01/26 20:19:24;;;;;;;10.25;6.43;;;;;;;;;;6126198;23;20450;-70
2022/01/26 20:21:50;;;;;;;10.43;5.65;;;;;;;;;;6153451;23;20012;-68
2022/01/26 20:24:17;;;;;;;8.30;5.85;;;;;;;;;;6156713;23;20006;-68
2022/01/26 20:26:43;;;;;;;13.20;7.55;;;;;;;;;;6157219;23;20064;-68
2022/01/26 20:29:09;;;;;;;11.07;6.75;;;;;;;;;;6157087;23;20005;-68
2022/01/26 20:31:35;;;;;;;9.18;5.72;;;;;;;;;;6157160;23;20013;-69
2022/01/26 20:34:00;;;;;;;10.07;6.82;;;;;;;;;;6156973;23;20068;-68
2022/01/26 20:36:29;;;;;;;11.43;6.97;;;;;;;;;;6156648;23;20304;-68
2022/01/26 20:38:58;;;;;;;8.68;6.30;;;;;;;;;;6156809;23;20334;-65
2022/01/26 20:41:24;;;;;;;9.88;6.70;;;;;;;;;;6157066;23;20006;-66
2022/01/26 20:43:49;;;;;;;13.50;8.80;;;;;;;;;;6156491;23;20083;-65
2022/01/26 20:46:16;;;;;;;12.38;7.47;;;;;;;;;;6156414;23;20009;-68
2022/01/26 20:48:41;;;;;;;9.98;7.18;;;;;;;;;;6156959;23;20002;-68
2022/01/26 20:51:07;;;;;;;11.38;6.55;;;;;;;;;;6156519;23;20100;-68
2022/01/26 20:53:32;;;;;;;14.63;8.35;;;;;;;;;;6156862;23;20001;-68
2022/01/26 20:55:58;;;;;;;8.85;6.35;;;;;;;;;;6130563;23;20088;-68
2022/01/26 20:58:26;;;;;;;7.53;6.30;;;;;;;;;;6156558;23;19994;-70
2022/01/26 21:00:52;;;;;;;10.05;7.03;;;;;;;;;;6156853;23;20453;-69
2022/01/26 21:03:18;;;;;;;8.32;6.45;;;;;;;;;;6156067;23;20018;-68
2022/01/26 21:05:44;;;;;;;9.07;6.53;;;;;;;;;;6106037;23;20006;-69
2022/01/26 21:08:09;;;;;;;8.73;5.78;;;;;;;;;;6156569;23;20072;-67
2022/01/26 21:10:34;;;;;;;8.50;6.03;;;;;;;;;;6156364;23;20006;-71
2022/01/26 21:13:00;;;;;;;9.63;5.90;;;;;;;;;;6130152;23;20051;-69
2022/01/26 21:15:26;;;;;;;7.82;6.22;;;;;;;;;;6130493;23;20095;-69
2022/01/26 21:17:51;;;;;;;9.48;6.70;;;;;;;;;;6156361;23;20002;-69
2022/01/26 21:20:20;;;;;;;8.80;6.18;;;;;;;;;;6130555;23;20005;-67
2022/01/26 21:22:46;;;;;;;7.82;6.22;;;;;;;;;;6156477;23;20052;-67
2022/01/26 21:25:12;;;;;;;7.90;5.35;;;;;;;;;;6156110;23;20006;-68
2022/01/26 21:27:37;;;;;;;8.20;6.00;;;;;;;;;;6156350;23;20002;-67
2022/01/26 21:30:04;;;;;;;7.78;5.72;;;;;;;;;;6156307;23;20006;-67
2022/01/26 21:32:31;;;;;;;7.13;4.95;;;;;;;;;;6156669;23;20020;-67
2022/01/26 21:34:57;;;;;;;7.63;5.53;;;;;;;;;;6156315;23;20012;-67
2022/01/26 21:37:23;;;;;;;7.78;5.47;;;;;;;;;;6156372;23;20001;-67
2022/01/26 21:39:48;;;;;;;6.68;5.18;;;;;;;;;;6156440;23;20006;-67
2022/01/26 21:42:14;;;;;;;6.57;4.97;;;;;;;;;;6156162;23;20377;-67
2022/01/26 21:44:39;;;;;;;5.60;4.90;;;;;;;;;;6156127;23;20048;-67
2022/01/26 21:47:05;;;;;;;6.10;5.03;;;;;;;;;;6156094;23;20001;-68
2022/01/26 21:49:30;;;;;;;6.00;5.45;;;;;;;;;;6156492;23;20040;-66
2022/01/26 21:51:56;;;;;;;8.13;5.60;;;;;;;;;;6155965;23;20001;-67
2022/01/26 21:54:24;;;;;;;6.15;5.22;;;;;;;;;;6155424;23;20005;-67
2022/01/26 21:56:50;;;;;;;8.75;5.88;;;;;;;;;;6155795;23;20426;-68
2022/01/26 21:59:16;;;;;;;5.70;4.97;;;;;;;;;;6156033;23;20069;-69
2022/01/26 22:01:41;;;;;;;6.10;5.05;;;;;;;;;;6156311;23;20414;-70
2022/01/26 22:04:07;;;;;;;7.15;5.75;;;;;;;;;;6156065;23;20446;-69
2022/01/26 22:06:33;;;;;;;6.65;5.82;;;;;;;;;;6156037;23;20089;-70
2022/01/26 22:08:59;;;;;;;6.93;4.95;;;;;;;;;;6156192;23;20044;-69
2022/01/26 22:11:24;;;;;;;10.05;5.95;;;;;;;;;;6156134;23;19997;-69
2022/01/26 22:13:50;;;;;;;7.40;6.18;;;;;;;;;;6155981;23;20060;-69
2022/01/26 22:16:15;;;;;;;6.82;5.32;;;;;;;;;;6155905;23;20005;-68
2022/01/26 22:18:42;;;;;;;8.35;5.85;;;;;;;;;;6155991;23;20009;-68
2022/01/26 22:21:07;;;;;;;8.90;5.47;;;;;;;;;;6156189;23;19997;-68
2022/01/26 22:23:35;;;;;;;8.82;6.60;;;;;;;;;;6156158;23;20321;-69
2022/01/26 22:26:00;;;;;;;12.75;7.78;;;;;;;;;;6155988;23;20127;-69
2022/01/26 22:28:28;;;;;;;9.02;7.00;;;;;;;;;;6155858;23;20037;-69
2022/01/26 22:30:54;;;;;;;9.95;7.55;;;;;;;;;;6155960;23;20430;-68
2022/01/26 22:33:19;;;;;;;7.30;6.10;;;;;;;;;;6155815;23;20088;-68
2022/01/26 22:35:45;;;;;;;9.00;6.45;;;;;;;;;;6156092;23;20303;-69
2022/01/26 22:38:10;;;;;;;7.00;5.55;;;;;;;;;;6155881;23;20434;-69
2022/01/26 22:40:38;;;;;;;7.43;6.25;;;;;;;;;;6156077;23;20029;-69
2022/01/26 22:43:04;;;;;;;8.38;6.30;;;;;;;;;;6155763;23;20005;-69
2022/01/26 22:45:30;;;;;;;8.70;6.07;;;;;;;;;;6155941;23;20081;-68
2022/01/26 22:47:56;;;;;;;7.40;5.72;;;;;;;;;;6155825;23;20013;-69
2022/01/26 22:50:21;;;;;;;9.15;6.55;;;;;;;;;;6155257;23;20029;-69
2022/01/26 22:52:49;;;;;;;8.48;5.80;;;;;;;;;;6130031;23;20068;-68
2022/01/26 22:55:15;;;;;;;8.48;6.35;;;;;;;;;;6155739;23;20001;-70
2022/01/26 22:57:40;;;;;;;7.80;6.22;;;;;;;;;;6155803;23;20162;-69
2022/01/26 23:00:17;;;;;;;6.10;5.13;;;;;;;;;;6130062;23;20021;-68
2022/01/26 23:02:51;;;;;;;6.82;5.13;;;;;;;;;;6154842;23;20386;-71
2022/01/26 23:08:14;;;;;;;7.45;5.43;;;;;;;;;;6155833;23;20012;-66
2022/01/26 23:10:40;;;;;;;8.55;6.30;;;;;;;;;;6155907;23;20409;-67
2022/01/26 23:13:05;;;;;;;7.03;5.43;;;;;;;;;;6155918;23;20009;-67
2022/01/26 23:15:31;;;;;;;9.50;5.82;;;;;;;;;;6155749;23;20009;-67
2022/01/26 23:17:56;;;;;;;6.40;5.53;;;;;;;;;;6155923;23;20001;-67
2022/01/26 23:20:22;;;;;;;6.60;4.82;;;;;;;;;;6155579;23;20006;-66
2022/01/26 23:22:48;;;;;;;7.20;4.90;;;;;;;;;;6155422;23;20073;-67
2022/01/26 23:25:32;;;;;;;7.53;5.53;;;;;;;;;;6155616;23;20025;-67
2022/01/26 23:30:47;;;;;;;7.07;5.03;;;;;;;;;;6156544;23;20024;-68
2022/01/26 23:36:17;;;;;;;5.85;5.25;;;;;;;;;;6131554;23;20037;-68
2022/01/26 23:39:51;;;;;;;5.55;4.78;;;;;;;;;;6157612;23;20076;-68
